Misión y Visión

La misión es proporcionar información fiable a la navegación aérea, contribuyendo a la seguridad, regularidad y eficiencia de la Navegación Aérea Internacional

La visión es contribuir sustancialmente al desarrollo de conocimientos y a la utilización de la meteorología aeronáutica a nivel nacional e internacional, mediante la innovación y la coparticipación con sectores sociales y productivos de la sociedad.

 
  Inicio
  Metar
  Taf
  Wintemp
  SIGMET
  Avisos
  Pronósticos
  Carpeta Meteorologica
  Imágenes Satelitales
  Climatología Aeronáutica
   
  ¿Quienes Somos?
  Contacto
  Eventos
Taf

 

IMÁGENES DEL AEROPUERTO
(EN CONSTRUCCION)

 

PRONOSTICO DE AERÓDROMO
TAF / PROYECCION CLIMATICA
MES DE JULIO

 

AEROPUERTO ENRIQUE MALEK:

TAF MPSM 190400Z 1906/2012 31005KT 9999 FEW018 SCT090 PROB30 TEMPO 1920/1924 19005KT 7000 TSRA SCT016CB BKN080


TAF:

TAF MPDA 190400Z 1906/1918 00000KT 9000 SCT020 PROB30 TEMPO 1914/1918 17005KT 6000 TSRA SCT016CB BKN080

 

AEROPUERTO PANAMA PACIFICO:

hola



TAF:



AEROPUERTO MARCOS A. GELABERT:

TAF MPMG 190400Z 1906/1918 34008KT 9000 SCT017CB BKN090 PROB30 TEMPO 1914/1918 6000 TSRA SCT016CB BKN080



TAF:



AEROPUERTO INTL. DE TOCUMEN:

TAF MPPA 190400Z 1906/2012 31004KT 8000 TSRA FEW015CB SCT018 BKN090 TEMPO 1912/1916 00000KT 9999 NSW SCT016 SCT090 PROB30 TEMPO 1919/1923 21005KT 7000 TSRA SCT016CB BKN080



TAF:

TAF MPTO 190400Z 1906/2012 29004KT 6000 TS SHRA BKN012 SCT018 OVC090 PROB30 TEMPO 1907/1911 00000KT TSRA SCT016CB BKN090 TEMPO 1911/1916 12008KT 9999 NSW SCT016 TEMPO 1916/1920 17005KT 6000 TSRA SCT015CB BKN090


 
 





(Se deja sin efecto la norma de prohibición)

































  Noticias AAC
  Directorio
  Contáctenos
  Historia
  Quejas y Sugerencias
  Etica y Transparencia

  Gestión SSP/SMS
  Seguridad Aérea
  Navegación Aérea
  Transporte Aéreo

  Tramites
  Áeronaves de Alquiler

  Meteorología
  I.S.F.P.A
  Notam
  Peligro Aviario
  AVSEC
  UPIA
  Permisos
 




DECLARACIÓN DE PRIVACIDAD